Time;durP1;ratioP1;P1;durP2;ratioP2;P2;SDS_P1;SDS_P2;PMS_P1;PMS_P2;Temp;Humidity;BMP_temperature;BMP_pressure;BME280_temperature;BME280_humidity;BME280_pressure;Samples;Min_cycle;Max_cycle;Signal;HPM_P1;HPM_P2
2021/04/10 00:00:22;;;;;;;24.43;12.17;;;;;;;;;;5050365;28;20021;-80
2021/04/10 00:02:51;;;;;;;19.97;12.13;;;;;;;;;;5049699;28;20066;-80
2021/04/10 00:05:18;;;;;;;20.23;11.40;;;;;;;;;;5048478;28;20024;-80
2021/04/10 00:07:44;;;;;;;24.83;11.07;;;;;;;;;;5048806;28;20017;-80
2021/04/10 00:10:09;;;;;;;21.10;11.10;;;;;;;;;;5048844;28;20074;-80
2021/04/10 00:12:35;;;;;;;20.13;11.67;;;;;;;;;;5049296;28;20044;-80
2021/04/10 00:15:00;;;;;;;20.57;11.40;;;;;;;;;;5048118;28;20029;-80
2021/04/10 00:17:25;;;;;;;18.67;11.00;;;;;;;;;;5048833;28;20021;-80
2021/04/10 00:19:50;;;;;;;21.27;11.67;;;;;;;;;;5049951;28;20024;-80
2021/04/10 00:22:15;;;;;;;25.03;11.93;;;;;;;;;;5049129;28;20020;-80
2021/04/10 00:24:41;;;;;;;24.33;13.20;;;;;;;;;;5048660;28;20112;-80
2021/04/10 00:27:06;;;;;;;23.10;12.67;;;;;;;;;;5050193;28;20035;-80
2021/04/10 00:29:31;;;;;;;22.60;12.23;;;;;;;;;;5049210;28;20358;-80
2021/04/10 00:31:56;;;;;;;22.67;11.63;;;;;;;;;;5049990;28;20036;-80
2021/04/10 00:34:21;;;;;;;20.07;11.70;;;;;;;;;;5049999;28;20024;-80
2021/04/10 00:36:47;;;;;;;23.93;13.23;;;;;;;;;;5049424;28;20020;-80
2021/04/10 00:39:12;;;;;;;23.67;13.33;;;;;;;;;;5050519;28;20099;-80
2021/04/10 00:41:37;;;;;;;25.40;13.37;;;;;;;;;;5052921;28;20055;-80
2021/04/10 00:44:02;;;;;;;25.40;13.73;;;;;;;;;;5053809;28;20025;-80
2021/04/10 00:46:27;;;;;;;22.77;12.50;;;;;;;;;;5053016;28;20116;-80
2021/04/10 00:48:52;;;;;;;20.70;12.77;;;;;;;;;;5054511;28;20033;-80
2021/04/10 00:51:18;;;;;;;22.97;12.90;;;;;;;;;;5055011;28;20478;-80
2021/04/10 00:53:43;;;;;;;23.03;13.20;;;;;;;;;;5054928;28;20009;-80
2021/04/10 00:56:08;;;;;;;22.37;12.33;;;;;;;;;;5053133;28;20384;-80
2021/04/10 00:58:34;;;;;;;21.30;13.47;;;;;;;;;;5053483;28;20017;-80
2021/04/10 01:01:00;;;;;;;27.00;13.90;;;;;;;;;;5054591;28;20021;-80
2021/04/10 01:03:26;;;;;;;23.30;13.90;;;;;;;;;;5053703;28;20574;-80
2021/04/10 01:05:51;;;;;;;23.03;13.40;;;;;;;;;;5053365;28;20136;-80
2021/04/10 01:08:16;;;;;;;24.13;12.83;;;;;;;;;;5054877;28;20021;-80
2021/04/10 01:10:41;;;;;;;22.80;12.83;;;;;;;;;;5054091;28;21588;-80
2021/04/10 01:13:16;;;;;;;23.33;12.83;;;;;;;;;;5053246;28;20021;-80
2021/04/10 01:15:56;;;;;;;24.60;11.97;;;;;;;;;;5054276;28;20605;-80
2021/04/10 01:18:32;;;;;;;26.73;14.77;;;;;;;;;;5053623;28;20017;-80
2021/04/10 01:21:09;;;;;;;25.80;13.10;;;;;;;;;;5054388;28;20016;-80
2021/04/10 01:23:46;;;;;;;23.17;13.63;;;;;;;;;;5053311;28;20302;-80
2021/04/10 01:26:17;;;;;;;24.03;13.57;;;;;;;;;;5052629;28;20020;-80
2021/04/10 01:28:45;;;;;;;25.80;13.87;;;;;;;;;;5054446;28;20071;-80
2021/04/10 01:31:12;;;;;;;25.60;13.50;;;;;;;;;;5052937;28;20479;-80
2021/04/10 01:33:40;;;;;;;23.63;13.10;;;;;;;;;;5053187;28;20085;-80
2021/04/10 01:36:05;;;;;;;27.27;13.67;;;;;;;;;;5053698;28;20096;-80
2021/04/10 01:38:31;;;;;;;24.40;13.47;;;;;;;;;;5054231;28;20104;-80
2021/04/10 01:40:58;;;;;;;25.60;14.27;;;;;;;;;;5052485;28;20075;-80
2021/04/10 01:43:24;;;;;;;21.27;13.70;;;;;;;;;;5053915;28;20031;-80
2021/04/10 01:45:49;;;;;;;23.00;12.90;;;;;;;;;;5053995;28;20021;-80
2021/04/10 01:48:15;;;;;;;28.07;12.93;;;;;;;;;;5053939;28;20017;-80
2021/04/10 01:50:41;;;;;;;26.90;12.97;;;;;;;;;;5052129;28;20025;-80
2021/04/10 01:53:06;;;;;;;23.53;13.83;;;;;;;;;;5052929;28;20025;-80
2021/04/10 01:55:32;;;;;;;25.97;13.53;;;;;;;;;;5051326;28;20021;-80
2021/04/10 01:57:57;;;;;;;25.50;13.03;;;;;;;;;;5047501;28;20028;-80
2021/04/10 02:00:26;;;;;;;24.23;13.60;;;;;;;;;;5067104;28;20052;-80
2021/04/10 02:02:52;;;;;;;23.90;14.73;;;;;;;;;;5085884;28;20075;-80
2021/04/10 02:05:18;;;;;;;22.73;13.80;;;;;;;;;;5085801;28;20025;-80
2021/04/10 02:07:45;;;;;;;29.23;13.97;;;;;;;;;;5085851;28;20028;-80
2021/04/10 02:10:13;;;;;;;23.13;12.67;;;;;;;;;;5053135;28;20017;-80
2021/04/10 02:12:38;;;;;;;23.07;13.07;;;;;;;;;;5085728;28;20036;-80
2021/04/10 02:15:04;;;;;;;22.57;12.47;;;;;;;;;;5085332;28;20729;-80
2021/04/10 02:17:29;;;;;;;23.40;13.33;;;;;;;;;;5085743;28;20067;-80
2021/04/10 02:19:55;;;;;;;23.53;13.20;;;;;;;;;;5085461;28;20021;-80
2021/04/10 02:22:22;;;;;;;26.03;14.40;;;;;;;;;;5053095;28;20053;-80
2021/04/10 02:24:47;;;;;;;28.57;15.17;;;;;;;;;;5053413;28;20453;-80
2021/04/10 02:27:12;;;;;;;24.83;14.03;;;;;;;;;;5053326;28;20016;-80
2021/04/10 02:29:38;;;;;;;26.23;14.40;;;;;;;;;;5052853;28;20100;-80
2021/04/10 02:32:07;;;;;;;20.43;13.30;;;;;;;;;;5085403;28;20133;-80
2021/04/10 02:34:34;;;;;;;24.93;13.10;;;;;;;;;;5052895;28;20027;-80
2021/04/10 02:37:00;;;;;;;25.87;13.60;;;;;;;;;;5085240;28;20017;-80
2021/04/10 02:39:26;;;;;;;29.07;14.17;;;;;;;;;;5052720;28;20033;-80
2021/04/10 02:41:51;;;;;;;27.13;14.80;;;;;;;;;;5085028;28;20059;-80
2021/04/10 02:44:21;;;;;;;28.37;13.97;;;;;;;;;;5052970;28;20158;-80
2021/04/10 02:46:48;;;;;;;22.90;13.20;;;;;;;;;;5052877;28;20102;-80
2021/04/10 02:49:19;;;;;;;25.00;12.70;;;;;;;;;;5052901;28;20028;-80
2021/04/10 02:51:47;;;;;;;25.87;13.60;;;;;;;;;;5052750;28;20024;-80
2021/04/10 02:54:14;;;;;;;24.73;13.20;;;;;;;;;;5052876;28;20021;-80
2021/04/10 02:56:41;;;;;;;28.17;12.93;;;;;;;;;;5071393;28;20051;-80
2021/04/10 02:59:07;;;;;;;26.63;14.47;;;;;;;;;;5052490;28;20026;-80
2021/04/10 03:01:33;;;;;;;24.13;13.63;;;;;;;;;;5084522;28;20019;-80
2021/04/10 03:03:59;;;;;;;25.53;13.93;;;;;;;;;;5084890;28;20454;-80
2021/04/10 03:06:25;;;;;;;20.80;13.03;;;;;;;;;;5084348;28;20021;-80
2021/04/10 03:08:50;;;;;;;28.97;14.30;;;;;;;;;;5084694;28;20043;-80
2021/04/10 03:11:16;;;;;;;19.13;10.40;;;;;;;;;;5050319;28;20056;-80
2021/04/10 03:13:41;;;;;;;22.97;12.63;;;;;;;;;;5052069;28;20041;-80
2021/04/10 03:16:07;;;;;;;22.25;10.93;;;;;;;;;;5084585;28;20066;-80
2021/04/10 03:18:32;;;;;;;23.77;13.20;;;;;;;;;;5084060;28;20104;-80
2021/04/10 03:20:58;;;;;;;25.63;13.18;;;;;;;;;;5052075;28;20522;-80
2021/04/10 03:23:23;;;;;;;19.70;10.25;;;;;;;;;;5052185;28;20017;-80
2021/04/10 03:25:48;;;;;;;23.50;12.93;;;;;;;;;;5084594;28;20104;-80
2021/04/10 03:28:13;;;;;;;23.38;10.73;;;;;;;;;;5084419;28;20392;-80
2021/04/10 03:30:39;;;;;;;27.98;12.02;;;;;;;;;;5051883;28;20017;-80
2021/04/10 03:33:04;;;;;;;30.85;13.13;;;;;;;;;;5052144;28;20532;-80
2021/04/10 03:35:30;;;;;;;23.55;11.70;;;;;;;;;;5051569;28;20527;-81
2021/04/10 03:37:56;;;;;;;23.02;11.02;;;;;;;;;;5052094;28;20009;-80
2021/04/10 03:40:21;;;;;;;25.95;12.63;;;;;;;;;;5084068;28;20157;-80
2021/04/10 03:42:46;;;;;;;26.52;12.60;;;;;;;;;;5051665;28;20381;-80
2021/04/10 03:45:13;;;;;;;23.30;11.07;;;;;;;;;;5052081;28;20013;-80
2021/04/10 03:47:38;;;;;;;20.92;10.93;;;;;;;;;;5084110;28;20121;-80
2021/04/10 03:50:07;;;;;;;26.75;12.88;;;;;;;;;;5051915;28;20053;-80
2021/04/10 03:52:33;;;;;;;20.98;11.55;;;;;;;;;;5050597;28;20024;-80
2021/04/10 03:54:58;;;;;;;21.80;12.10;;;;;;;;;;5083863;28;20020;-81
2021/04/10 03:57:24;;;;;;;24.63;12.88;;;;;;;;;;5084088;28;20027;-80
2021/04/10 03:59:49;;;;;;;26.20;12.80;;;;;;;;;;5051857;28;20020;-80
2021/04/10 04:02:14;;;;;;;29.10;12.35;;;;;;;;;;5084001;28;20025;-80
2021/04/10 04:04:39;;;;;;;26.25;12.77;;;;;;;;;;5083753;28;20464;-81
2021/04/10 04:07:05;;;;;;;29.88;14.05;;;;;;;;;;5084031;28;20021;-80
2021/04/10 04:09:30;;;;;;;28.88;14.68;;;;;;;;;;5052278;28;20147;-81
2021/04/10 04:11:55;;;;;;;24.85;13.98;;;;;;;;;;5051454;28;20021;-80
2021/04/10 04:14:20;;;;;;;26.40;13.27;;;;;;;;;;5083762;28;20029;-80
2021/04/10 04:16:45;;;;;;;23.80;12.98;;;;;;;;;;5086338;28;20038;-80
2021/04/10 04:19:11;;;;;;;28.73;14.00;;;;;;;;;;5054555;28;20036;-80
2021/04/10 04:21:36;;;;;;;32.42;15.55;;;;;;;;;;5053765;28;20013;-80
2021/04/10 04:24:01;;;;;;;30.88;15.05;;;;;;;;;;5087763;28;20017;-80
2021/04/10 04:26:26;;;;;;;30.92;15.82;;;;;;;;;;5055524;28;20079;-80
2021/04/10 04:28:52;;;;;;;23.85;13.07;;;;;;;;;;5055645;28;20116;-80
2021/04/10 04:31:19;;;;;;;27.45;11.07;;;;;;;;;;5054704;28;20488;-80
2021/04/10 04:33:45;;;;;;;29.00;13.40;;;;;;;;;;5054001;28;20036;-80
2021/04/10 04:36:10;;;;;;;22.27;11.60;;;;;;;;;;5055703;28;20025;-80
2021/04/10 04:38:35;;;;;;;29.17;14.95;;;;;;;;;;5055567;28;20025;-80
2021/04/10 04:41:00;;;;;;;30.98;15.15;;;;;;;;;;5087521;28;20024;-80
2021/04/10 04:43:25;;;;;;;32.13;14.05;;;;;;;;;;5053548;28;20017;-80
2021/04/10 04:45:51;;;;;;;30.42;14.63;;;;;;;;;;5053624;28;20051;-80
2021/04/10 04:48:16;;;;;;;29.67;14.10;;;;;;;;;;5087645;28;20021;-80
2021/04/10 04:50:41;;;;;;;32.33;15.18;;;;;;;;;;5087247;28;20035;-80
2021/04/10 04:53:06;;;;;;;34.90;15.93;;;;;;;;;;5055426;28;20409;-80
2021/04/10 04:55:31;;;;;;;32.42;16.90;;;;;;;;;;5053490;28;20028;-80
2021/04/10 04:57:56;;;;;;;26.60;13.10;;;;;;;;;;5055164;28;20456;-80
2021/04/10 05:00:22;;;;;;;27.50;13.57;;;;;;;;;;5054578;28;20043;-80
2021/04/10 05:02:47;;;;;;;20.73;10.50;;;;;;;;;;5086481;28;20055;-81
2021/04/10 05:05:12;;;;;;;28.08;14.40;;;;;;;;;;5054811;28;20543;-81
2021/04/10 05:07:38;;;;;;;26.35;13.35;;;;;;;;;;5087124;28;20035;-81
2021/04/10 05:10:03;;;;;;;33.30;15.55;;;;;;;;;;5054679;28;20021;-80
2021/04/10 05:12:28;;;;;;;32.08;14.73;;;;;;;;;;5055041;28;20021;-80
2021/04/10 05:14:54;;;;;;;27.00;13.25;;;;;;;;;;5086961;28;20057;-80
2021/04/10 05:17:19;;;;;;;29.30;14.02;;;;;;;;;;5054819;28;20443;-80
2021/04/10 05:19:44;;;;;;;25.15;14.05;;;;;;;;;;5054708;28;20017;-80
2021/04/10 05:22:09;;;;;;;32.00;14.45;;;;;;;;;;5086643;28;20017;-80
2021/04/10 05:24:34;;;;;;;30.48;15.52;;;;;;;;;;5086955;28;20013;-80
2021/04/10 05:27:00;;;;;;;20.25;12.05;;;;;;;;;;5052023;28;20032;-80
2021/04/10 05:29:25;;;;;;;25.30;12.63;;;;;;;;;;5052876;28;20009;-81
2021/04/10 05:31:50;;;;;;;30.55;14.93;;;;;;;;;;5054275;28;20427;-81
2021/04/10 05:34:15;;;;;;;29.80;14.23;;;;;;;;;;5086709;28;20016;-80
2021/04/10 05:36:40;;;;;;;25.65;13.23;;;;;;;;;;5086625;28;20024;-80
2021/04/10 05:39:06;;;;;;;28.08;14.38;;;;;;;;;;5054311;28;20009;-80
2021/04/10 05:41:31;;;;;;;37.00;11.65;;;;;;;;;;5054122;28;20044;-80
2021/04/10 05:43:56;;;;;;;28.10;14.25;;;;;;;;;;5052774;28;20017;-80
2021/04/10 05:46:23;;;;;;;26.02;12.23;;;;;;;;;;5054098;28;20009;-80
2021/04/10 05:48:48;;;;;;;20.65;10.68;;;;;;;;;;5086343;28;20017;-80
2021/04/10 05:51:13;;;;;;;24.50;11.95;;;;;;;;;;5086327;28;20017;-80
2021/04/10 05:53:42;;;;;;;23.85;12.88;;;;;;;;;;5086108;28;20468;-80
2021/04/10 05:56:07;;;;;;;27.88;12.35;;;;;;;;;;5053834;28;20025;-80
2021/04/10 05:58:32;;;;;;;29.55;14.77;;;;;;;;;;5052642;28;20032;-80
2021/04/10 06:00:57;;;;;;;31.45;14.25;;;;;;;;;;5053745;28;20461;-80
2021/04/10 06:03:22;;;;;;;27.50;14.57;;;;;;;;;;5086262;28;20013;-80
2021/04/10 06:05:49;;;;;;;22.67;12.07;;;;;;;;;;5053837;28;20488;-80
2021/04/10 06:08:14;;;;;;;19.80;9.23;;;;;;;;;;5086076;28;20037;-80
2021/04/10 06:10:39;;;;;;;27.65;12.93;;;;;;;;;;5052492;28;20032;-80
2021/04/10 06:13:05;;;;;;;25.73;14.00;;;;;;;;;;5052759;28;20029;-80
2021/04/10 06:15:30;;;;;;;19.90;10.57;;;;;;;;;;5051092;28;20147;-80
2021/04/10 06:17:55;;;;;;;33.05;13.20;;;;;;;;;;5051209;28;20025;-80
2021/04/10 06:20:21;;;;;;;29.60;14.55;;;;;;;;;;5050449;28;20021;-80
2021/04/10 06:22:46;;;;;;;28.83;13.00;;;;;;;;;;5052387;28;20021;-80
2021/04/10 06:25:11;;;;;;;28.02;13.05;;;;;;;;;;5051140;28;20468;-81
2021/04/10 06:27:37;;;;;;;26.52;13.65;;;;;;;;;;5050291;28;20016;-80
2021/04/10 06:30:03;;;;;;;28.23;12.88;;;;;;;;;;5052310;28;20025;-80
2021/04/10 06:32:28;;;;;;;28.88;12.60;;;;;;;;;;5066846;28;20120;-80
2021/04/10 06:34:54;;;;;;;26.77;13.82;;;;;;;;;;5053219;28;20052;-80
2021/04/10 06:37:19;;;;;;;27.45;13.00;;;;;;;;;;5085153;28;20089;-80
2021/04/10 06:39:44;;;;;;;25.77;12.43;;;;;;;;;;5052347;28;20024;-80
2021/04/10 06:42:09;;;;;;;26.02;13.05;;;;;;;;;;5052718;28;20067;-80
2021/04/10 06:44:35;;;;;;;26.42;12.02;;;;;;;;;;5051763;28;20070;-80
2021/04/10 06:47:03;;;;;;;25.40;13.27;;;;;;;;;;5052652;28;20025;-80
2021/04/10 06:49:31;;;;;;;28.92;13.90;;;;;;;;;;5050702;28;20021;-80
2021/04/10 06:52:00;;;;;;;26.67;12.43;;;;;;;;;;5084724;28;20021;-80
2021/04/10 06:54:37;;;;;;;24.55;12.93;;;;;;;;;;5074208;28;20499;-80
2021/04/10 06:57:11;;;;;;;24.33;11.93;;;;;;;;;;5071468;28;20108;-80
2021/04/10 06:59:43;;;;;;;24.10;10.70;;;;;;;;;;5047222;28;20043;-80
2021/04/10 07:02:10;;;;;;;29.17;13.35;;;;;;;;;;5047180;28;20017;-80
2021/04/10 07:04:36;;;;;;;30.77;15.38;;;;;;;;;;5047782;28;20017;-80
2021/04/10 07:07:01;;;;;;;22.63;12.52;;;;;;;;;;5050201;28;20021;-80
2021/04/10 07:09:27;;;;;;;36.60;13.88;;;;;;;;;;5052362;28;20013;-80
2021/04/10 07:11:55;;;;;;;38.60;14.55;;;;;;;;;;5051260;28;20070;-80
2021/04/10 07:14:20;;;;;;;30.13;13.50;;;;;;;;;;5051027;28;20054;-80
2021/04/10 07:16:45;;;;;;;24.08;13.02;;;;;;;;;;5050763;28;20021;-80
2021/04/10 07:19:12;;;;;;;32.80;13.90;;;;;;;;;;5052945;28;20048;-81
2021/04/10 07:21:37;;;;;;;36.45;15.70;;;;;;;;;;5084365;28;20075;-81
2021/04/10 07:24:02;;;;;;;20.90;11.02;;;;;;;;;;5052113;28;20738;-81
2021/04/10 07:26:46;;;;;;;27.02;12.98;;;;;;;;;;5050293;28;20452;-81
2021/04/10 07:29:31;;;;;;;34.25;13.85;;;;;;;;;;5038307;28;20108;-80
2021/04/10 07:31:57;;;;;;;34.78;14.93;;;;;;;;;;5038212;28;20033;-81
2021/04/10 07:34:23;;;;;;;30.52;16.13;;;;;;;;;;5050553;28;20112;-81
2021/04/10 07:36:55;;;;;;;41.60;16.92;;;;;;;;;;5050506;28;20025;-81
2021/04/10 07:39:20;;;;;;;32.38;14.88;;;;;;;;;;5038623;28;20369;-81
2021/04/10 07:41:56;;;;;;;30.75;14.55;;;;;;;;;;5043248;28;20026;-81
2021/04/10 07:44:34;;;;;;;26.60;14.88;;;;;;;;;;5047576;28;20032;-81
2021/04/10 07:47:02;;;;;;;33.15;16.77;;;;;;;;;;5040315;28;20037;-81
2021/04/10 07:49:27;;;;;;;32.30;15.57;;;;;;;;;;5048844;28;20032;-81
2021/04/10 07:51:54;;;;;;;24.42;11.85;;;;;;;;;;5041170;28;20029;-81
2021/04/10 07:54:21;;;;;;;30.52;14.90;;;;;;;;;;5051694;28;20707;-81
2021/04/10 07:56:52;;;;;;;33.85;16.00;;;;;;;;;;5047864;28;20092;-81
2021/04/10 07:59:18;;;;;;;29.83;14.18;;;;;;;;;;5041326;28;20380;-81
2021/04/10 08:01:43;;;;;;;38.92;18.75;;;;;;;;;;5050397;28;20021;-81
2021/04/10 08:04:12;;;;;;;39.35;18.13;;;;;;;;;;5049034;28;20020;-81
2021/04/10 08:06:37;;;;;;;36.17;17.75;;;;;;;;;;5040779;28;20024;-81
2021/04/10 08:09:02;;;;;;;42.80;18.17;;;;;;;;;;5084055;28;20021;-80
2021/04/10 08:11:32;;;;;;;38.85;18.48;;;;;;;;;;5082915;28;20017;-81
2021/04/10 08:13:58;;;;;;;32.75;16.60;;;;;;;;;;5082446;28;20031;-81
2021/04/10 08:16:25;;;;;;;38.25;15.35;;;;;;;;;;5051431;28;20029;-81
2021/04/10 08:19:08;;;;;;;31.95;15.80;;;;;;;;;;5082769;28;20032;-80
2021/04/10 08:21:33;;;;;;;38.10;18.92;;;;;;;;;;5049657;28;20028;-80
2021/04/10 08:23:59;;;;;;;37.97;16.80;;;;;;;;;;5051259;28;20020;-81
2021/04/10 08:26:24;;;;;;;32.35;15.02;;;;;;;;;;5082748;28;20037;-81
2021/04/10 08:28:50;;;;;;;38.88;17.65;;;;;;;;;;5049968;28;20016;-81
2021/04/10 08:31:16;;;;;;;36.88;18.67;;;;;;;;;;5051617;28;20094;-80
2021/04/10 08:33:41;;;;;;;31.95;18.02;;;;;;;;;;5050143;28;20029;-81
2021/04/10 08:36:10;;;;;;;38.00;17.38;;;;;;;;;;5070169;28;20465;-81
2021/04/10 08:38:37;;;;;;;38.08;17.52;;;;;;;;;;5050223;28;20021;-82
2021/04/10 08:41:03;;;;;;;35.97;16.95;;;;;;;;;;5050290;28;20017;-82
2021/04/10 08:43:30;;;;;;;37.60;17.27;;;;;;;;;;5050110;28;20029;-81
2021/04/10 08:45:57;;;;;;;37.53;17.48;;;;;;;;;;5050579;28;20033;-81
2021/04/10 08:48:22;;;;;;;32.75;17.60;;;;;;;;;;5051780;28;20028;-82
2021/04/10 08:50:51;;;;;;;34.10;18.95;;;;;;;;;;5080831;28;20025;-81
2021/04/10 08:53:22;;;;;;;44.33;19.85;;;;;;;;;;5078075;28;20025;-81
2021/04/10 08:55:48;;;;;;;37.97;19.75;;;;;;;;;;5050051;28;20040;-82
2021/04/10 08:58:30;;;;;;;38.72;18.23;;;;;;;;;;5077521;28;20017;-81
2021/04/10 09:00:58;;;;;;;40.78;19.17;;;;;;;;;;5049443;28;20036;-82
2021/04/10 09:03:55;;;;;;;29.88;16.00;;;;;;;;;;5052264;28;20063;-81
2021/04/10 09:06:30;;;;;;;43.47;20.35;;;;;;;;;;5039682;28;20029;-82
2021/04/10 09:09:11;;;;;;;33.38;18.35;;;;;;;;;;5080620;28;20107;-81
2021/04/10 09:11:37;;;;;;;37.13;19.83;;;;;;;;;;5054269;28;20039;-81
2021/04/10 09:14:03;;;;;;;37.78;19.67;;;;;;;;;;5046338;28;20025;-81
2021/04/10 09:16:29;;;;;;;49.38;19.70;;;;;;;;;;5052349;28;20154;-80
2021/04/10 09:19:05;;;;;;;34.25;19.60;;;;;;;;;;5052700;28;20384;-81
2021/04/10 09:21:35;;;;;;;43.92;20.08;;;;;;;;;;5047298;28;20021;-81
2021/04/10 09:24:16;;;;;;;42.22;22.52;;;;;;;;;;5078755;28;20435;-81
2021/04/10 09:26:51;;;;;;;38.28;17.08;;;;;;;;;;5051657;28;20431;-81
2021/04/10 09:29:16;;;;;;;36.53;17.58;;;;;;;;;;5083613;28;20024;-81
2021/04/10 09:31:45;;;;;;;45.15;22.13;;;;;;;;;;5083377;28;20473;-81
2021/04/10 09:34:29;;;;;;;43.35;22.63;;;;;;;;;;5076673;28;20378;-81
2021/04/10 09:36:55;;;;;;;43.25;20.33;;;;;;;;;;5048098;28;20021;-81
2021/04/10 09:39:38;;;;;;;41.20;20.00;;;;;;;;;;5051690;28;20017;-82
2021/04/10 09:42:04;;;;;;;50.42;23.23;;;;;;;;;;5086384;28;20063;-80
2021/04/10 09:44:29;;;;;;;54.15;24.75;;;;;;;;;;5082075;28;20111;-81
2021/04/10 09:46:54;;;;;;;40.72;19.33;;;;;;;;;;5052577;28;20017;-80
2021/04/10 09:49:36;;;;;;;41.65;21.02;;;;;;;;;;5069052;28;20452;-80
2021/04/10 09:52:01;;;;;;;46.03;21.27;;;;;;;;;;5050193;28;20024;-81
2021/04/10 09:54:27;;;;;;;40.80;21.35;;;;;;;;;;5066793;28;20108;-80
2021/04/10 09:56:52;;;;;;;38.80;19.15;;;;;;;;;;5040015;28;20021;-81
2021/04/10 09:59:17;;;;;;;32.17;17.38;;;;;;;;;;5050493;28;20014;-80
2021/04/10 10:01:43;;;;;;;33.20;15.77;;;;;;;;;;5051966;28;20091;-81
2021/04/10 10:04:12;;;;;;;39.65;18.42;;;;;;;;;;5072990;28;20017;-81
2021/04/10 10:06:43;;;;;;;33.65;17.13;;;;;;;;;;5052190;28;20025;-81
2021/04/10 10:09:25;;;;;;;37.67;18.73;;;;;;;;;;5085143;28;20021;-81
2021/04/10 10:11:51;;;;;;;;;;;;;;;;;;5066979;28;20103;-81
2021/04/10 10:14:16;;;;;;;35.40;18.40;;;;;;;;;;5052433;28;19964;-81
2021/04/10 10:16:41;;;;;;;38.53;21.30;;;;;;;;;;5075433;28;20025;-80
2021/04/10 10:19:14;;;;;;;41.95;20.55;;;;;;;;;;5075445;28;20549;-81
2021/04/10 10:21:39;;;;;;;35.60;18.95;;;;;;;;;;5052055;28;20031;-81
2021/04/10 10:24:04;;;;;;;35.67;18.60;;;;;;;;;;5085216;28;20029;-80
2021/04/10 10:26:36;;;;;;;38.08;19.58;;;;;;;;;;5085766;28;20107;-81
2021/04/10 10:29:12;;;;;;;38.85;20.08;;;;;;;;;;5085339;28;20830;-80
2021/04/10 10:31:42;;;;;;;36.15;17.92;;;;;;;;;;5085587;28;20053;-81
2021/04/10 10:34:09;;;;;;;35.10;17.85;;;;;;;;;;5052765;28;20039;-81
2021/04/10 10:36:35;;;;;;;35.83;18.70;;;;;;;;;;5053012;28;20055;-81
2021/04/10 10:39:00;;;;;;;33.63;19.73;;;;;;;;;;5079906;28;20765;-81
2021/04/10 10:41:25;;;;;;;41.83;19.63;;;;;;;;;;5052248;28;20017;-81
2021/04/10 10:43:59;;;;;;;33.63;17.20;;;;;;;;;;5051501;28;20557;-81
2021/04/10 10:46:24;;;;;;;36.22;18.45;;;;;;;;;;5085471;28;20483;-81
2021/04/10 10:48:50;;;;;;;37.00;19.65;;;;;;;;;;5052692;28;20017;-81
2021/04/10 10:51:18;;;;;;;42.67;21.67;;;;;;;;;;5052525;28;20095;-80
2021/04/10 10:53:47;;;;;;;37.97;19.88;;;;;;;;;;5052466;28;20101;-81
2021/04/10 10:56:18;;;;;;;33.65;18.00;;;;;;;;;;5048856;28;20149;-81
2021/04/10 10:58:43;;;;;;;37.42;21.23;;;;;;;;;;5043582;28;20379;-81
2021/04/10 11:01:12;;;;;;;35.70;20.48;;;;;;;;;;5050390;28;20025;-81
2021/04/10 11:03:42;;;;;;;43.42;22.08;;;;;;;;;;5052046;28;20028;-81
2021/04/10 11:06:07;;;;;;;38.28;19.98;;;;;;;;;;5051493;28;20035;-81
2021/04/10 11:08:33;;;;;;;36.50;20.33;;;;;;;;;;5084112;28;20104;-81
2021/04/10 11:10:59;;;;;;;41.38;25.02;;;;;;;;;;5084893;28;20059;-81
2021/04/10 11:13:24;;;;;;;41.45;26.52;;;;;;;;;;5050281;28;20417;-81
2021/04/10 11:15:50;;;;;;;36.10;21.60;;;;;;;;;;5083799;28;20024;-81
2021/04/10 11:18:26;;;;;;;42.95;26.58;;;;;;;;;;5052601;28;20052;-81
2021/04/10 11:20:51;;;;;;;41.63;23.90;;;;;;;;;;5083681;28;20045;-81
2021/04/10 11:23:16;;;;;;;39.00;23.50;;;;;;;;;;5050786;28;20384;-81
2021/04/10 11:25:48;;;;;;;37.25;24.00;;;;;;;;;;5070269;28;20024;-81
2021/04/10 11:28:13;;;;;;;;;;;;;;;;;;5085207;28;20039;-81
2021/04/10 11:30:39;;;;;;;31.42;20.10;;;;;;;;;;5051845;28;19909;-81
2021/04/10 11:33:04;;;;;;;36.70;19.25;;;;;;;;;;5051045;28;20322;-81
2021/04/10 11:35:29;;;;;;;32.50;19.08;;;;;;;;;;5049179;28;20104;-81
2021/04/10 11:38:04;;;;;;;33.33;21.02;;;;;;;;;;5052323;28;20025;-80
2021/04/10 11:40:34;;;;;;;34.97;20.30;;;;;;;;;;5051414;28;20561;-81
2021/04/10 11:43:01;;;;;;;26.65;17.13;;;;;;;;;;5051584;28;20427;-81
2021/04/10 11:45:28;;;;;;;30.02;18.55;;;;;;;;;;5073909;28;20039;-81
2021/04/10 11:48:15;;;;;;;29.27;18.85;;;;;;;;;;5083599;28;20031;-81
2021/04/10 11:50:47;;;;;;;30.67;19.60;;;;;;;;;;5078006;28;20116;-81
2021/04/10 11:53:35;;;;;;;31.50;18.80;;;;;;;;;;5075386;28;20071;-81
2021/04/10 11:56:21;;;;;;;27.42;18.00;;;;;;;;;;5038301;28;20044;-81
2021/04/10 11:58:46;;;;;;;39.53;20.20;;;;;;;;;;5066812;28;20805;-81
2021/04/10 12:01:12;;;;;;;29.77;16.73;;;;;;;;;;5049820;28;20049;-81
2021/04/10 12:03:51;;;;;;;27.17;17.73;;;;;;;;;;5051359;28;20029;-81
2021/04/10 12:06:25;;;;;;;32.30;19.42;;;;;;;;;;5050082;28;20107;-81
2021/04/10 12:08:50;;;;;;;34.45;20.83;;;;;;;;;;5052498;28;20025;-81
2021/04/10 12:11:16;;;;;;;35.20;21.58;;;;;;;;;;5055666;28;20040;-81
2021/04/10 12:13:41;;;;;;;33.67;20.63;;;;;;;;;;5051607;28;20087;-81
2021/04/10 12:16:06;;;;;;;37.05;20.25;;;;;;;;;;5079662;28;20068;-81
2021/04/10 12:18:31;;;;;;;34.55;19.90;;;;;;;;;;5050458;28;20460;-81
2021/04/10 12:20:59;;;;;;;36.45;21.85;;;;;;;;;;5082548;28;20025;-81
2021/04/10 12:23:24;;;;;;;36.67;23.10;;;;;;;;;;5073432;28;20117;-80
2021/04/10 12:25:50;;;;;;;32.38;19.00;;;;;;;;;;5072540;28;20462;-81
2021/04/10 12:28:16;;;;;;;29.20;18.50;;;;;;;;;;5044885;28;20040;-81
2021/04/10 12:30:41;;;;;;;31.55;19.27;;;;;;;;;;5051571;28;20503;-81
2021/04/10 12:33:07;;;;;;;34.42;21.58;;;;;;;;;;5078392;28;20029;-81
2021/04/10 12:35:32;;;;;;;32.35;19.30;;;;;;;;;;5050898;28;20028;-81
2021/04/10 12:37:57;;;;;;;33.15;20.75;;;;;;;;;;5053542;28;20025;-81
2021/04/10 12:40:22;;;;;;;30.67;18.35;;;;;;;;;;5053279;28;20354;-81
2021/04/10 12:42:48;;;;;;;25.90;15.63;;;;;;;;;;5087058;28;20047;-81
2021/04/10 12:45:14;;;;;;;21.80;13.88;;;;;;;;;;5054485;28;20013;-82
2021/04/10 12:47:39;;;;;;;23.63;15.00;;;;;;;;;;5050274;28;20395;-81
2021/04/10 12:50:05;;;;;;;27.40;15.13;;;;;;;;;;5047947;28;20027;-81
2021/04/10 12:52:30;;;;;;;26.23;14.48;;;;;;;;;;5055063;28;20024;-81
2021/04/10 12:54:56;;;;;;;22.10;14.68;;;;;;;;;;5054331;28;20449;-82
2021/04/10 12:57:22;;;;;;;24.95;17.15;;;;;;;;;;5053358;28;20083;-81
2021/04/10 12:59:48;;;;;;;32.72;17.75;;;;;;;;;;5087396;28;20032;-81
2021/04/10 13:02:13;;;;;;;26.92;17.05;;;;;;;;;;5054326;28;20356;-82
2021/04/10 13:04:38;;;;;;;31.52;17.10;;;;;;;;;;5054935;28;20017;-82
2021/04/10 13:07:04;;;;;;;33.15;19.02;;;;;;;;;;5050527;28;20112;-82
2021/04/10 13:09:30;;;;;;;30.98;16.42;;;;;;;;;;5081253;28;20480;-82
2021/04/10 13:11:55;;;;;;;24.17;15.93;;;;;;;;;;5052629;28;20109;-81
2021/04/10 13:14:21;;;;;;;29.90;19.30;;;;;;;;;;5086833;28;20085;-82
2021/04/10 13:16:47;;;;;;;34.60;18.05;;;;;;;;;;5085203;28;20078;-82
2021/04/10 13:19:12;;;;;;;25.45;16.27;;;;;;;;;;5087053;28;20032;-82
2021/04/10 13:21:37;;;;;;;23.30;14.93;;;;;;;;;;5053909;28;20020;-82
2021/04/10 13:24:02;;;;;;;31.40;18.77;;;;;;;;;;5054371;28;20017;-82
2021/04/10 13:26:28;;;;;;;25.00;15.15;;;;;;;;;;5052172;28;20039;-82
2021/04/10 13:28:53;;;;;;;23.95;15.18;;;;;;;;;;5048248;28;20767;-82
2021/04/10 13:31:18;;;;;;;26.40;16.67;;;;;;;;;;5086169;28;20112;-80
2021/04/10 13:33:43;;;;;;;28.35;18.15;;;;;;;;;;5053733;28;20611;-80
2021/04/10 13:36:09;;;;;;;31.67;18.88;;;;;;;;;;5053679;28;20471;-80
2021/04/10 13:38:34;;;;;;;28.00;17.58;;;;;;;;;;5054051;28;20036;-80
2021/04/10 13:41:01;;;;;;;30.92;18.67;;;;;;;;;;5086244;28;20013;-80
2021/04/10 13:43:26;;;;;;;36.38;18.60;;;;;;;;;;5070850;28;20572;-80
2021/04/10 13:45:51;;;;;;;29.40;18.30;;;;;;;;;;5052379;28;20069;-80
2021/04/10 13:48:16;;;;;;;34.15;19.38;;;;;;;;;;5074187;28;20083;-80
2021/04/10 13:50:41;;;;;;;33.33;19.20;;;;;;;;;;5052383;28;20473;-80
2021/04/10 13:53:07;;;;;;;28.77;17.80;;;;;;;;;;5053122;28;20032;-80
2021/04/10 13:55:32;;;;;;;28.52;17.20;;;;;;;;;;5053443;28;20040;-80
2021/04/10 13:57:57;;;;;;;25.90;16.15;;;;;;;;;;5053807;28;20024;-80
2021/04/10 14:00:22;;;;;;;24.42;15.15;;;;;;;;;;5078573;28;20028;-80
2021/04/10 14:02:48;;;;;;;32.80;18.58;;;;;;;;;;5083016;28;20101;-80
2021/04/10 14:05:14;;;;;;;30.75;18.73;;;;;;;;;;5053225;28;20025;-80
2021/04/10 14:07:40;;;;;;;31.25;18.33;;;;;;;;;;5052372;28;20090;-80
2021/04/10 14:10:06;;;;;;;28.33;18.67;;;;;;;;;;5051983;28;20036;-80
2021/04/10 14:12:32;;;;;;;29.67;19.33;;;;;;;;;;5052257;28;20432;-80
2021/04/10 14:14:57;;;;;;;33.25;19.80;;;;;;;;;;5052811;28;20047;-79
2021/04/10 14:17:22;;;;;;;31.30;19.45;;;;;;;;;;5085800;28;20020;-80